createdAt,value
2019-04-22T00:01:05.800Z,48.58
2019-04-22T00:03:49.733Z,48.56
2019-04-22T00:06:39.285Z,49.29
2019-04-22T00:09:19.184Z,48.16
2019-04-22T00:11:59.247Z,49.21
2019-04-22T00:14:30.923Z,49.35
2019-04-22T00:17:16.670Z,49.54
2019-04-22T00:19:55.520Z,49.54
2019-04-22T00:22:27.424Z,48.81
2019-04-22T00:25:03.371Z,50.13
2019-04-22T00:27:41.179Z,50.48
2019-04-22T00:30:16.548Z,50.41
2019-04-22T00:33:04.780Z,50.18
2019-04-22T00:35:38.059Z,49.86
2019-04-22T00:38:17.226Z,49.78
2019-04-22T00:40:56.221Z,50.46
2019-04-22T00:43:37.510Z,50.67
2019-04-22T00:46:11.314Z,50.98
2019-04-22T00:49:07.054Z,50.79
2019-04-22T00:51:22.487Z,51.13
2019-04-22T00:54:03.824Z,51.16
2019-04-22T00:56:35.666Z,51.39
2019-04-22T00:59:13.160Z,51.09
2019-04-22T01:01:57.684Z,51.21
2019-04-22T01:04:34.787Z,51.72
2019-04-22T01:07:03.615Z,51.64
2019-04-22T01:09:46.528Z,51.78
2019-04-22T01:12:26.341Z,52.27
2019-04-22T01:15:05.861Z,52.17
2019-04-22T01:17:41.772Z,51.94
2019-04-22T01:22:48.967Z,53.17
2019-04-22T01:25:26.308Z,52.47
2019-04-22T01:27:57.180Z,53.00
2019-04-22T01:30:30.357Z,53.12
2019-04-22T01:33:05.669Z,53.20
2019-04-22T01:35:53.882Z,53.28
2019-04-22T01:38:31.339Z,53.19
2019-04-22T01:41:16.426Z,53.58
2019-04-22T01:44:00.615Z,53.76
2019-04-22T01:46:31.813Z,54.17
2019-04-22T01:49:12.562Z,54.12
2019-04-22T01:51:51.798Z,54.13
2019-04-22T01:54:22.223Z,53.85
2019-04-22T01:56:52.629Z,54.28
2019-04-22T01:59:29.115Z,54.10
2019-04-22T02:02:10.562Z,54.18
2019-04-22T02:04:51.416Z,54.16
2019-04-22T02:07:25.391Z,54.46
2019-04-22T02:09:56.030Z,54.33
2019-04-22T02:15:13.806Z,54.66
2019-04-22T02:17:56.856Z,54.21
2019-04-22T02:20:25.305Z,54.35
2019-04-22T02:23:45.875Z,53.98
2019-04-22T02:28:39.987Z,54.06
2019-04-22T02:39:17.459Z,53.94
2019-04-22T02:41:49.752Z,54.12
2019-04-22T02:44:29.748Z,54.47
2019-04-22T02:47:15.686Z,54.68
2019-04-22T02:52:25.831Z,54.97
2019-04-22T02:57:35.253Z,53.84
2019-04-22T03:00:18.404Z,54.61
2019-04-22T03:03:03.871Z,55.15
2019-04-22T03:05:41.066Z,54.97
2019-04-22T03:08:23.580Z,55.21
2019-04-22T03:16:10.779Z,54.87
2019-04-22T03:21:16.038Z,54.59
2019-04-22T03:29:04.551Z,55.15
2019-04-22T03:37:21.361Z,55.40
2019-04-22T03:45:10.174Z,55.58
2019-04-22T03:50:22.719Z,55.63
2019-04-22T03:55:30.564Z,55.85
2019-04-22T03:58:11.059Z,56.35
2019-04-22T04:06:00.200Z,55.82
2019-04-22T04:08:33.509Z,55.94
2019-04-22T04:11:07.076Z,56.02
2019-04-22T04:14:03.468Z,56.61
2019-04-22T04:16:30.718Z,55.82
2019-04-22T04:21:41.865Z,56.48
2019-04-22T04:32:30.980Z,56.67
2019-04-22T04:37:42.265Z,57.03
2019-04-22T04:40:11.645Z,56.33
2019-04-22T04:42:53.751Z,56.84
2019-04-22T04:45:31.972Z,56.83
2019-04-22T04:50:47.375Z,56.76
2019-04-22T04:53:23.209Z,56.61
2019-04-22T04:56:10.786Z,57.09
2019-04-22T05:09:22.437Z,56.30
2019-04-22T05:12:08.712Z,56.64
2019-04-22T05:14:26.506Z,56.25
2019-04-22T05:17:15.745Z,56.19
2019-04-22T05:19:41.256Z,55.62
2019-04-22T05:24:53.328Z,54.90
2019-04-22T05:27:37.727Z,54.60
2019-04-22T05:30:23.770Z,54.62
2019-04-22T05:32:55.229Z,54.66
2019-04-22T05:35:23.123Z,54.44
2019-04-22T05:38:04.512Z,54.52
2019-04-22T05:40:34.447Z,54.57
2019-04-22T05:43:09.346Z,54.48
2019-04-22T05:45:42.993Z,54.09
2019-04-22T05:48:27.362Z,54.14
2019-04-22T05:51:04.452Z,53.17
2019-04-22T05:53:40.289Z,53.64
2019-04-22T05:56:23.872Z,52.91
2019-04-22T06:01:38.812Z,53.08
2019-04-22T06:06:45.352Z,52.63
2019-04-22T06:09:27.474Z,51.66
2019-04-22T06:11:55.457Z,52.02
2019-04-22T06:14:40.373Z,52.00
2019-04-22T06:17:24.728Z,51.05
2019-04-22T06:20:00.606Z,50.80
2019-04-22T06:25:24.529Z,50.72
2019-04-22T06:27:53.926Z,50.62
2019-04-22T06:30:41.457Z,50.25
2019-04-22T06:33:05.834Z,49.07
2019-04-22T06:35:57.890Z,49.96
2019-04-22T06:38:32.968Z,49.70
2019-04-22T06:41:04.506Z,49.67
2019-04-22T06:43:34.948Z,48.73
2019-04-22T06:46:16.974Z,49.56
2019-04-22T06:48:47.928Z,48.17
2019-04-22T06:51:29.195Z,48.38
2019-04-22T06:54:03.390Z,48.40
2019-04-22T06:56:43.068Z,48.47
2019-04-22T06:59:18.866Z,47.80
2019-04-22T07:01:59.829Z,47.55
2019-04-22T07:04:27.960Z,47.43
2019-04-22T07:07:08.111Z,47.94
2019-04-22T07:09:48.711Z,47.84
2019-04-22T07:12:24.353Z,47.16
2019-04-22T07:15:01.690Z,46.75
2019-04-22T07:17:39.431Z,47.64
2019-04-22T07:20:10.555Z,47.28
2019-04-22T07:22:45.549Z,46.42
2019-04-22T07:25:23.414Z,47.05
2019-04-22T07:27:58.326Z,45.96
2019-04-22T07:30:40.981Z,46.15
2019-04-22T07:33:22.914Z,46.69
2019-04-22T07:36:10.779Z,45.55
2019-04-22T07:38:26.894Z,46.06
2019-04-22T07:41:02.153Z,46.34
2019-04-22T07:43:59.832Z,45.55
2019-04-22T07:46:19.850Z,45.42
2019-04-22T07:49:00.067Z,45.75
2019-04-22T07:51:32.965Z,45.66
2019-04-22T07:54:11.163Z,45.46
2019-04-22T07:56:50.684Z,44.95
2019-04-22T08:00:05.558Z,44.83
2019-04-22T08:02:37.439Z,44.46
2019-04-22T08:05:12.415Z,44.60
2019-04-22T08:07:51.453Z,43.30
2019-04-22T08:10:31.410Z,43.56
2019-04-22T08:13:06.591Z,43.59
2019-04-22T08:18:17.427Z,43.84
2019-04-22T08:20:55.460Z,43.97
2019-04-22T08:23:39.910Z,43.98
2019-04-22T08:26:13.531Z,43.29
2019-04-22T08:28:56.049Z,43.79
2019-04-22T08:31:32.050Z,42.85
2019-04-22T08:34:02.082Z,42.45
2019-04-22T08:37:10.314Z,42.36
2019-04-22T08:39:21.741Z,42.68
2019-04-22T08:41:50.899Z,41.72
2019-04-22T08:44:52.092Z,41.63
2019-04-22T08:47:29.176Z,40.99
2019-04-22T08:49:50.766Z,41.45
2019-04-22T08:53:06.181Z,40.63
2019-04-22T08:55:41.800Z,39.95
2019-04-22T08:58:21.679Z,39.42
2019-04-22T09:00:52.845Z,39.74
2019-04-22T09:03:27.579Z,39.47
2019-04-22T09:06:04.802Z,39.82
2019-04-22T09:08:42.328Z,40.32
2019-04-22T09:11:25.233Z,38.44
2019-04-22T09:13:57.268Z,39.03
2019-04-22T09:16:33.316Z,38.69
2019-04-22T09:19:05.724Z,38.10
2019-04-22T09:21:45.472Z,37.79
2019-04-22T09:24:23.641Z,38.11
2019-04-22T09:27:18.753Z,37.78
2019-04-22T09:30:06.333Z,37.61
2019-04-22T09:35:16.889Z,36.52
2019-04-22T09:37:57.299Z,37.08
2019-04-22T09:40:31.534Z,36.38
2019-04-22T09:43:11.430Z,36.26
2019-04-22T09:45:48.007Z,37.07
2019-04-22T09:48:32.673Z,36.89
2019-04-22T09:51:00.458Z,37.30
2019-04-22T09:53:47.251Z,35.02
2019-04-22T09:56:19.390Z,35.88
2019-04-22T09:58:58.964Z,35.64
2019-04-22T10:04:20.157Z,35.51
2019-04-22T10:06:40.550Z,35.47
2019-04-22T10:11:56.349Z,35.18
2019-04-22T10:14:38.399Z,35.91
2019-04-22T10:17:15.482Z,36.42
2019-04-22T10:20:06.794Z,33.33
2019-04-22T10:22:35.547Z,33.54
2019-04-22T10:25:08.693Z,34.17
2019-04-22T10:27:45.623Z,34.43
2019-04-22T10:30:24.561Z,34.01
2019-04-22T10:32:52.321Z,34.68
2019-04-22T10:35:17.107Z,30.79
2019-04-22T10:37:50.236Z,33.16
2019-04-22T10:40:36.309Z,33.13
2019-04-22T10:43:12.099Z,33.03
2019-04-22T10:45:48.099Z,32.99
2019-04-22T10:48:24.109Z,32.11
2019-04-22T10:51:00.630Z,31.81
2019-04-22T10:53:37.406Z,33.11
2019-04-22T10:56:12.774Z,31.35
2019-04-22T10:58:48.922Z,31.80
2019-04-22T11:01:25.666Z,31.32
2019-04-22T11:04:01.540Z,31.08
2019-04-22T11:06:40.926Z,31.74
2019-04-22T11:09:16.583Z,30.67
2019-04-22T11:12:01.427Z,30.43
2019-04-22T11:14:28.852Z,31.20
2019-04-22T11:17:05.649Z,30.49
2019-04-22T11:19:41.577Z,30.63
2019-04-22T11:22:26.510Z,29.61
2019-04-22T11:24:59.924Z,28.17
2019-04-22T11:27:35.230Z,27.89
2019-04-22T11:30:11.426Z,27.99
2019-04-22T11:32:46.652Z,26.37
2019-04-22T11:35:22.018Z,27.07
2019-04-22T11:37:56.945Z,26.53
2019-04-22T11:40:38.416Z,26.14
2019-04-22T11:43:12.401Z,26.09
2019-04-22T11:45:51.287Z,26.41
2019-04-22T11:48:27.025Z,26.52
2019-04-22T11:51:02.409Z,27.37
2019-04-22T11:53:38.644Z,25.80
2019-04-22T11:56:14.125Z,24.90
2019-04-22T11:58:49.125Z,24.73
2019-04-22T12:01:24.664Z,23.71
2019-04-22T12:03:59.972Z,24.15
2019-04-22T12:06:36.011Z,24.70
2019-04-22T12:09:13.555Z,24.76
2019-04-22T12:11:49.507Z,21.90
2019-04-22T12:14:25.788Z,22.73
2019-04-22T12:17:03.727Z,22.39
2019-04-22T12:19:40.097Z,22.28
2019-04-22T12:22:15.448Z,23.43
2019-04-22T12:24:50.482Z,24.11
2019-04-22T12:27:26.769Z,23.27
2019-04-22T12:30:02.997Z,22.91
2019-04-22T12:32:39.174Z,22.73
2019-04-22T12:35:15.665Z,20.76
2019-04-22T12:37:55.634Z,20.27
2019-04-22T12:40:38.250Z,19.77
2019-04-22T12:43:06.195Z,20.67
2019-04-22T12:45:42.435Z,20.67
2019-04-22T12:48:18.981Z,20.95
2019-04-22T12:50:56.459Z,21.25
2019-04-22T12:53:31.966Z,21.66
2019-04-22T12:56:09.194Z,20.58
2019-04-22T12:58:45.574Z,20.17
2019-04-22T13:01:21.237Z,20.28
2019-04-22T13:04:03.189Z,20.21
2019-04-22T13:06:33.325Z,20.84
2019-04-22T13:09:10.535Z,19.40
2019-04-22T13:11:45.987Z,19.68
2019-04-22T13:14:21.288Z,19.94
2019-04-22T13:16:57.599Z,19.20
2019-04-22T13:19:33.965Z,19.23
2019-04-22T13:22:09.322Z,19.13
2019-04-22T13:24:45.738Z,18.33
2019-04-22T13:27:21.247Z,18.80
2019-04-22T13:29:57.131Z,18.80
2019-04-22T13:32:32.494Z,18.59
2019-04-22T13:35:08.994Z,18.56
2019-04-22T13:37:44.306Z,18.34
2019-04-22T13:40:21.071Z,17.84
2019-04-22T13:42:56.133Z,18.05
2019-04-22T13:45:31.808Z,17.44
2019-04-22T13:48:24.108Z,17.92
2019-04-22T13:51:15.097Z,17.88
2019-04-22T13:54:18.866Z,17.25
2019-04-22T13:56:19.369Z,17.63
2019-04-22T13:58:52.406Z,17.58
2019-04-22T14:01:18.618Z,17.19
2019-04-22T14:04:04.901Z,17.27
2019-04-22T14:06:40.765Z,17.41
2019-04-22T14:09:17.210Z,17.25
2019-04-22T14:11:58.595Z,17.88
2019-04-22T14:14:30.255Z,18.03
2019-04-22T14:17:07.047Z,17.82
2019-04-22T14:19:44.763Z,17.71
2019-04-22T14:22:22.039Z,17.14
2019-04-22T14:24:58.662Z,17.16
2019-04-22T14:27:46.202Z,17.15
2019-04-22T14:30:12.547Z,16.95
2019-04-22T14:32:49.082Z,17.81
2019-04-22T14:35:25.003Z,18.01
2019-04-22T14:38:01.402Z,18.14
2019-04-22T14:40:37.254Z,18.28
2019-04-22T14:43:45.722Z,18.29
2019-04-22T14:48:49.827Z,18.63
2019-04-22T14:51:20.525Z,18.58
2019-04-22T14:54:00.024Z,18.20
2019-04-22T14:56:18.138Z,17.95
2019-04-22T14:59:29.208Z,18.18
2019-04-22T15:02:05.818Z,18.71
2019-04-22T15:04:41.600Z,19.11
2019-04-22T15:07:19.181Z,18.60
2019-04-22T15:10:29.853Z,18.77
2019-04-22T15:13:05.440Z,19.81
2019-04-22T15:16:05.836Z,19.93
2019-04-22T15:18:45.972Z,19.79
2019-04-22T15:21:23.029Z,19.97
2019-04-22T15:24:02.412Z,20.40
2019-04-22T15:26:38.201Z,20.75
2019-04-22T15:29:13.712Z,21.14
2019-04-22T15:31:49.295Z,21.17
2019-04-22T15:34:30.359Z,21.50
2019-04-22T15:37:06.496Z,21.82
2019-04-22T15:39:41.855Z,21.58
2019-04-22T15:42:22.713Z,21.39
2019-04-22T15:44:53.960Z,22.11
2019-04-22T15:47:29.304Z,21.20
2019-04-22T15:50:05.992Z,21.36
2019-04-22T15:52:47.880Z,20.96
2019-04-22T15:55:18.735Z,20.25
2019-04-22T15:57:54.048Z,18.94
2019-04-22T16:00:44.557Z,19.01
2019-04-22T16:03:12.506Z,19.15
2019-04-22T16:05:48.072Z,19.14
2019-04-22T16:08:24.732Z,19.44
2019-04-22T16:11:00.045Z,18.48
2019-04-22T16:13:37.997Z,18.78
2019-04-22T16:16:12.506Z,18.88
2019-04-22T16:18:48.599Z,18.74
2019-04-22T16:21:33.813Z,19.95
2019-04-22T16:24:20.217Z,20.19
2019-04-22T16:27:20.644Z,20.16
2019-04-22T16:29:57.142Z,20.25
2019-04-22T16:32:33.732Z,19.97
2019-04-22T16:35:10.531Z,19.26
2019-04-22T16:37:46.570Z,19.02
2019-04-22T16:40:22.839Z,19.35
2019-04-22T16:43:02.369Z,19.65
2019-04-22T16:45:40.063Z,20.28
2019-04-22T16:48:15.826Z,20.46
2019-04-22T16:50:52.805Z,19.95
2019-04-22T16:53:29.457Z,20.06
2019-04-22T16:56:11.180Z,19.15
2019-04-22T16:58:46.517Z,19.66
2019-04-22T17:01:56.635Z,19.37
2019-04-22T17:05:05.130Z,18.77
2019-04-22T17:07:40.347Z,19.27
2019-04-22T17:10:17.774Z,19.22
2019-04-22T17:13:01.553Z,20.00
2019-04-22T17:15:31.218Z,20.69
2019-04-22T17:18:07.420Z,21.83
2019-04-22T17:20:42.681Z,22.65
2019-04-22T17:23:17.831Z,23.47
2019-04-22T17:25:54.427Z,24.39
2019-04-22T17:28:31.189Z,25.33
2019-04-22T17:31:08.738Z,25.26
2019-04-22T17:33:44.680Z,25.61
2019-04-22T17:36:20.270Z,24.96
2019-04-22T17:39:43.546Z,24.73
2019-04-22T17:42:25.185Z,24.67
2019-04-22T17:45:22.018Z,25.00
2019-04-22T17:48:18.235Z,25.22
2019-04-22T17:51:03.091Z,24.28
2019-04-22T17:53:34.841Z,25.23
2019-04-22T17:56:15.659Z,25.23
2019-04-22T17:58:46.391Z,26.37
2019-04-22T18:01:24.975Z,27.15
2019-04-22T18:03:48.581Z,27.86
2019-04-22T18:06:45.270Z,28.16
2019-04-22T18:09:14.618Z,28.31
2019-04-22T18:11:51.220Z,28.42
2019-04-22T18:14:43.393Z,28.57
2019-04-22T18:17:07.061Z,28.83
2019-04-22T18:19:43.057Z,29.50
2019-04-22T18:22:38.154Z,29.56
2019-04-22T18:25:20.339Z,29.74
2019-04-22T18:28:15.070Z,29.61
2019-04-22T18:30:34.756Z,30.15
2019-04-22T18:33:18.592Z,29.79
2019-04-22T18:35:54.017Z,30.20
2019-04-22T18:38:39.738Z,30.30
2019-04-22T18:41:05.029Z,30.72
2019-04-22T18:43:47.758Z,30.57
2019-04-22T18:46:25.416Z,29.73
2019-04-22T18:49:00.684Z,30.01
2019-04-22T18:52:05.861Z,31.10
2019-04-22T18:54:48.419Z,30.23
2019-04-22T18:57:23.721Z,30.83
2019-04-22T18:59:45.305Z,30.29
2019-04-22T19:02:23.593Z,31.32
2019-04-22T19:05:08.459Z,30.49
2019-04-22T19:08:00.676Z,30.74
2019-04-22T19:10:46.330Z,31.25
2019-04-22T19:13:34.810Z,31.17
2019-04-22T19:15:54.322Z,31.77
2019-04-22T19:18:29.833Z,31.96
2019-04-22T19:21:02.694Z,32.64
2019-04-22T19:23:43.438Z,32.52
2019-04-22T19:26:28.812Z,32.35
2019-04-22T19:28:49.469Z,32.55
2019-04-22T19:31:43.857Z,32.87
2019-04-22T19:34:03.009Z,32.71
2019-04-22T19:36:48.566Z,33.35
2019-04-22T19:39:13.230Z,32.94
2019-04-22T19:42:06.844Z,33.34
2019-04-22T19:44:34.247Z,33.54
2019-04-22T19:49:55.905Z,34.51
2019-04-22T19:52:30.271Z,33.99
2019-04-22T19:55:03.332Z,34.44
2019-04-22T19:57:34.577Z,34.84
2019-04-22T20:00:28.357Z,35.14
2019-04-22T20:03:34.686Z,34.89
2019-04-22T20:06:08.839Z,35.85
2019-04-22T20:08:42.646Z,35.71
2019-04-22T20:11:26.536Z,35.34
2019-04-22T20:13:55.432Z,36.29
2019-04-22T20:16:27.252Z,36.35
2019-04-22T20:19:13.647Z,36.48
2019-04-22T20:21:51.707Z,36.95
2019-04-22T20:24:14.503Z,37.11
2019-04-22T20:27:04.181Z,37.88
2019-04-22T20:29:42.097Z,37.70
2019-04-22T20:32:18.824Z,38.02
2019-04-22T20:34:57.950Z,38.75
2019-04-22T20:37:38.556Z,39.39
2019-04-22T20:40:10.782Z,39.32
2019-04-22T20:42:54.390Z,39.53
2019-04-22T20:45:30.832Z,39.63
2019-04-22T20:47:50.989Z,40.08
2019-04-22T20:50:41.695Z,39.98
2019-04-22T20:53:18.640Z,40.40
2019-04-22T20:55:53.829Z,40.88
2019-04-22T20:58:28.570Z,40.82
2019-04-22T21:00:56.824Z,40.89
2019-04-22T21:03:33.803Z,41.17
2019-04-22T21:06:16.418Z,40.80
2019-04-22T21:09:02.294Z,41.10
2019-04-22T21:11:29.678Z,40.50
2019-04-22T21:14:05.935Z,41.15
2019-04-22T21:16:56.410Z,39.93
2019-04-22T21:19:41.661Z,40.51
2019-04-22T21:22:08.073Z,39.92
2019-04-22T21:24:43.553Z,39.86
2019-04-22T21:27:40.667Z,40.03
2019-04-22T21:29:52.174Z,39.96
2019-04-22T21:32:34.394Z,40.78
2019-04-22T21:35:19.834Z,40.45
2019-04-22T21:38:00.510Z,40.45
2019-04-22T21:40:28.794Z,40.47
2019-04-22T21:43:12.167Z,40.73
2019-04-22T21:45:39.275Z,40.43
2019-04-22T21:48:28.081Z,40.62
2019-04-22T21:50:59.800Z,40.67
2019-04-22T21:53:47.814Z,40.33
2019-04-22T21:56:29.146Z,39.79
2019-04-22T21:58:56.036Z,39.99
2019-04-22T22:01:51.147Z,39.69
2019-04-22T22:04:16.152Z,40.26
2019-04-22T22:06:41.253Z,40.65
2019-04-22T22:10:04.305Z,40.23
2019-04-22T22:12:45.157Z,40.63
2019-04-22T22:15:18.577Z,40.74
2019-04-22T22:17:51.622Z,40.22
2019-04-22T22:21:12.184Z,39.93
2019-04-22T22:23:36.356Z,39.87
2019-04-22T22:26:04.096Z,39.99
2019-04-22T22:28:54.472Z,40.44
2019-04-22T22:31:31.617Z,40.42
2019-04-22T22:34:02.060Z,40.90
2019-04-22T22:36:35.079Z,40.67
2019-04-22T22:39:08.685Z,40.71
2019-04-22T22:41:34.147Z,40.43
2019-04-22T22:44:18.790Z,40.70
2019-04-22T22:47:03.223Z,40.92
2019-04-22T22:49:50.173Z,40.81
2019-04-22T22:54:58.877Z,40.92
2019-04-22T22:57:50.249Z,41.38
2019-04-22T23:00:11.509Z,41.32
2019-04-22T23:03:03.418Z,42.00
2019-04-22T23:05:35.412Z,41.97
2019-04-22T23:08:07.744Z,41.94
2019-04-22T23:10:52.600Z,41.94
2019-04-22T23:13:21.804Z,41.93
2019-04-22T23:15:44.316Z,42.34
2019-04-22T23:18:10.063Z,42.57
2019-04-22T23:20:47.793Z,42.64
2019-04-22T23:23:44.059Z,42.37
2019-04-22T23:26:40.388Z,42.93
2019-04-22T23:29:26.215Z,43.41
2019-04-22T23:32:07.273Z,43.13
2019-04-22T23:34:49.798Z,43.67
2019-04-22T23:37:25.197Z,43.30
2019-04-22T23:40:22.062Z,43.49
2019-04-22T23:42:53.099Z,44.33
2019-04-22T23:45:33.200Z,44.52
2019-04-22T23:48:03.407Z,44.92
2019-04-22T23:50:48.014Z,44.44
2019-04-22T23:53:55.522Z,44.96
2019-04-22T23:56:04.361Z,44.84
2019-04-22T23:58:52.703Z,44.70
